Kewanee, Illinois
Current Conditions -  °F | °C
As of 1:15 PM on Thursday 30 Oct 2014 (Local Time) from KC75 Reporting Station
Overcast Overcast  
Wind Chill: 47°   Ceiling: 7000
Heat Index: 47°   Visibility: 10mi
Dew Point: 36°   Wind: 0mph
Humidity: 64%   Direction: NA
Pressure: 30.09"   Gusts: NA
Location:  41.25°N, 89.92°W
Report Text: KC75 301815Z AUTO 00000KT 10SM OVC070 08/02 A3009 RMK AO2 T00840020
Loading
Personal Weather Stations






























Interactive Weather Map
Tropical Storm Tracking
New forecast layout! Learn more

10-Day Weather Forecast

Advertisements
Track Severe Weather on mobile